Time;durP1;ratioP1;P1;durP2;ratioP2;P2;SDS_P1;SDS_P2;PMS_P1;PMS_P2;Temp;Humidity;BMP_temperature;BMP_pressure;BME280_temperature;BME280_humidity;BME280_pressure;Samples;Min_cycle;Max_cycle;Signal;HPM_P1;HPM_P2
2022/07/09 00:00:22;;;;;;;17.23;7.97;;;16.80;99.90;;;;;;5051783;28;20049;-62
2022/07/09 00:02:48;;;;;;;21.00;8.70;;;16.70;99.90;;;;;;5033765;28;20459;-62
2022/07/09 00:05:14;;;;;;;21.80;9.10;;;16.80;99.90;;;;;;5051754;28;20045;-62
2022/07/09 00:07:41;;;;;;;19.73;8.32;;;16.20;99.90;;;;;;5034027;28;20126;-62
2022/07/09 00:10:07;;;;;;;19.00;8.57;;;16.50;99.90;;;;;;5051503;28;20064;-63
2022/07/09 00:12:33;;;;;;;19.92;9.50;;;16.20;99.90;;;;;;5051496;28;20419;-62
2022/07/09 00:14:58;;;;;;;20.70;9.55;;;16.90;99.90;;;;;;5051649;28;20412;-62
2022/07/09 00:17:25;;;;;;;22.20;8.88;;;16.10;99.90;;;;;;5033846;28;20049;-62
2022/07/09 00:19:51;;;;;;;24.42;9.18;;;16.20;99.90;;;;;;5051493;28;20048;-63
2022/07/09 00:22:17;;;;;;;18.52;8.98;;;16.70;99.90;;;;;;5051369;28;20048;-63
2022/07/09 00:24:43;;;;;;;17.98;8.55;;;16.50;99.90;;;;;;5051378;28;20049;-62
2022/07/09 00:27:09;;;;;;;20.70;8.75;;;16.50;99.90;;;;;;5051325;28;20051;-62
2022/07/09 00:29:34;;;;;;;18.73;8.82;;;16.70;99.90;;;;;;5051622;28;20049;-62
2022/07/09 00:32:00;;;;;;;16.02;8.25;;;16.30;99.90;;;;;;5051414;28;20440;-62
2022/07/09 00:34:26;;;;;;;17.38;8.25;;;16.40;99.90;;;;;;5033456;28;20048;-62
2022/07/09 00:36:52;;;;;;;17.95;8.02;;;16.30;99.90;;;;;;5051285;28;20103;-63
2022/07/09 00:39:17;;;;;;;20.23;8.23;;;16.20;99.90;;;;;;5051373;28;20099;-62
2022/07/09 00:41:43;;;;;;;27.45;8.55;;;16.30;99.90;;;;;;5051205;28;20052;-63
2022/07/09 00:44:09;;;;;;;20.08;8.10;;;16.00;99.90;;;;;;5017115;28;20049;-62
2022/07/09 00:46:34;;;;;;;16.17;7.93;;;16.50;99.90;;;;;;5051274;28;20048;-62
2022/07/09 00:49:05;;;;;;;19.80;8.07;;;16.20;99.90;;;;;;5051443;28;20492;-62
2022/07/09 00:51:31;;;;;;;21.63;8.80;;;15.60;99.90;;;;;;5050826;28;20124;-62
2022/07/09 00:53:58;;;;;;;17.65;8.50;;;16.20;99.90;;;;;;5051070;28;20052;-62
2022/07/09 00:56:24;;;;;;;20.33;8.38;;;16.10;99.90;;;;;;5050769;28;20067;-62
2022/07/09 00:58:51;;;;;;;26.23;8.90;;;16.20;99.90;;;;;;5051423;28;20045;-62
2022/07/09 01:01:17;;;;;;;18.27;8.18;;;16.00;99.90;;;;;;5050725;28;20407;-63
2022/07/09 01:03:43;;;;;;;19.80;8.45;;;15.80;99.90;;;;;;5051004;28;20132;-63
2022/07/09 01:06:08;;;;;;;20.50;8.80;;;16.10;99.90;;;;;;5050899;28;20091;-63
2022/07/09 01:08:34;;;;;;;18.75;8.35;;;16.10;99.90;;;;;;5051080;28;20130;-63
2022/07/09 01:11:00;;;;;;;19.98;9.18;;;;;;;;;;5033146;28;20056;-63
2022/07/09 01:13:26;;;;;;;19.70;9.25;;;15.80;99.90;;;;;;5051176;28;20051;-63
2022/07/09 01:15:52;;;;;;;20.45;8.88;;;16.00;99.90;;;;;;5050595;28;20045;-63
2022/07/09 01:18:19;;;;;;;25.35;9.77;;;15.40;99.90;;;;;;5033091;28;20049;-63
2022/07/09 01:20:45;;;;;;;22.50;8.43;;;15.70;99.90;;;;;;5050929;28;20052;-64
2022/07/09 01:23:11;;;;;;;17.15;8.15;;;15.90;99.90;;;;;;5033213;28;20528;-63
2022/07/09 01:25:37;;;;;;;19.50;8.82;;;;;;;;;;5051073;28;20056;-63
2022/07/09 01:28:05;;;;;;;21.55;8.40;;;16.10;99.90;;;;;;5051011;28;20048;-63
2022/07/09 01:30:32;;;;;;;19.85;8.77;;;16.00;99.90;;;;;;5051011;28;20080;-63
2022/07/09 01:32:58;;;;;;;16.90;8.20;;;16.10;99.90;;;;;;5050767;28;20091;-63
2022/07/09 01:35:28;;;;;;;19.67;9.13;;;16.50;99.90;;;;;;5050654;28;20045;-63
2022/07/09 01:37:54;;;;;;;16.40;8.25;;;16.20;99.90;;;;;;5050761;28;20329;-63
2022/07/09 01:40:20;;;;;;;15.32;8.52;;;16.00;99.90;;;;;;5051082;28;20115;-63
2022/07/09 01:42:47;;;;;;;19.90;8.55;;;16.00;99.90;;;;;;5050502;28;20053;-63
2022/07/09 01:45:14;;;;;;;21.67;8.15;;;16.10;99.90;;;;;;5050734;28;20048;-63
2022/07/09 01:47:39;;;;;;;15.73;7.90;;;15.50;99.90;;;;;;5050547;28;20489;-63
2022/07/09 01:50:06;;;;;;;18.75;8.82;;;15.80;99.90;;;;;;5053889;28;20049;-63
2022/07/09 01:52:32;;;;;;;23.23;9.02;;;;;;;;;;5035770;28;20057;-63
2022/07/09 01:54:58;;;;;;;20.17;8.70;;;15.50;99.90;;;;;;5053955;28;20507;-63
2022/07/09 01:57:24;;;;;;;19.05;8.63;;;16.00;99.90;;;;;;5054011;28;20515;-63
2022/07/09 01:59:49;;;;;;;18.35;9.30;;;15.70;99.90;;;;;;5054298;28;20041;-63
2022/07/09 02:02:15;;;;;;;23.75;8.93;;;15.30;99.90;;;;;;5036270;28;20163;-63
2022/07/09 02:04:41;;;;;;;22.75;9.25;;;16.20;99.90;;;;;;5053988;28;20041;-63
2022/07/09 02:07:07;;;;;;;21.45;9.13;;;15.90;99.90;;;;;;5053791;28;20048;-63
2022/07/09 02:09:32;;;;;;;22.15;9.82;;;16.00;99.90;;;;;;5054172;28;20049;-63
2022/07/09 02:11:58;;;;;;;16.33;8.65;;;;;;;;;;5053920;28;20124;-63
2022/07/09 02:14:24;;;;;;;23.13;10.05;;;16.00;99.90;;;;;;5054180;28;20053;-63
2022/07/09 02:16:50;;;;;;;24.70;9.60;;;16.20;99.90;;;;;;5053827;28;20175;-62
2022/07/09 02:19:16;;;;;;;23.83;11.50;;;15.70;99.90;;;;;;5053858;28;20048;-62
2022/07/09 02:21:42;;;;;;;23.52;10.80;;;;;;;;;;5053600;28;20570;-62
2022/07/09 02:24:07;;;;;;;23.02;10.48;;;16.00;99.90;;;;;;5053669;28;20111;-63
2022/07/09 02:26:33;;;;;;;23.02;10.43;;;16.20;99.90;;;;;;5053755;28;20076;-62
2022/07/09 02:28:59;;;;;;;21.92;10.98;;;16.40;99.90;;;;;;5053459;28;20128;-62
2022/07/09 02:31:26;;;;;;;26.52;11.23;;;16.40;99.90;;;;;;5053643;28;20568;-62
2022/07/09 02:33:52;;;;;;;24.35;11.82;;;15.90;99.90;;;;;;5053461;28;20132;-62
2022/07/09 02:36:18;;;;;;;23.83;11.05;;;16.10;99.90;;;;;;5035438;28;20048;-62
2022/07/09 02:38:44;;;;;;;26.10;11.00;;;16.00;99.90;;;;;;5053296;28;20567;-62
2022/07/09 02:41:10;;;;;;;27.50;12.00;;;16.20;99.90;;;;;;5036010;28;20124;-62
2022/07/09 02:43:36;;;;;;;22.80;12.07;;;16.20;99.90;;;;;;5053220;28;20107;-62
2022/07/09 02:46:03;;;;;;;26.27;11.90;;;16.60;99.90;;;;;;5053307;28;20484;-62
2022/07/09 02:48:29;;;;;;;27.48;12.05;;;16.20;99.90;;;;;;5035325;28;20358;-63
2022/07/09 02:50:55;;;;;;;20.13;11.07;;;16.00;99.90;;;;;;5053008;28;20060;-63
2022/07/09 02:53:21;;;;;;;27.90;11.90;;;16.10;99.90;;;;;;5053167;28;20494;-63
2022/07/09 02:55:46;;;;;;;25.10;11.45;;;16.30;99.90;;;;;;5035080;28;20092;-63
2022/07/09 02:58:12;;;;;;;20.10;11.55;;;16.40;99.90;;;;;;5053040;28;20401;-63
2022/07/09 03:00:42;;;;;;;24.00;10.93;;;16.20;99.90;;;;;;5051931;28;20323;-63
2022/07/09 03:03:08;;;;;;;27.38;11.48;;;16.50;99.90;;;;;;5052787;28;20045;-63
2022/07/09 03:05:36;;;;;;;21.60;11.75;;;16.20;99.90;;;;;;5052394;28;20044;-63
2022/07/09 03:08:02;;;;;;;26.42;12.25;;;16.70;99.90;;;;;;5052625;28;20067;-63
2022/07/09 03:10:29;;;;;;;21.30;11.70;;;;;;;;;;5052930;28;20060;-63
2022/07/09 03:12:54;;;;;;;23.40;11.85;;;16.10;99.90;;;;;;5052618;28;20129;-64
2022/07/09 03:15:20;;;;;;;25.98;12.00;;;16.10;99.90;;;;;;5052581;28;20156;-63
2022/07/09 03:17:47;;;;;;;23.30;10.70;;;16.50;99.90;;;;;;5052583;28;20049;-63
2022/07/09 03:20:13;;;;;;;25.13;12.07;;;16.30;99.90;;;;;;5053006;28;20041;-63
2022/07/09 03:22:41;;;;;;;25.58;11.55;;;16.20;99.90;;;;;;5052710;28;20044;-63
2022/07/09 03:25:08;;;;;;;22.13;10.82;;;16.00;99.90;;;;;;5052529;28;20052;-63
2022/07/09 03:27:34;;;;;;;22.27;10.55;;;16.20;99.90;;;;;;5052391;28;20056;-63
2022/07/09 03:30:01;;;;;;;24.60;11.10;;;16.30;99.90;;;;;;5052259;28;20041;-63
2022/07/09 03:32:27;;;;;;;20.52;10.32;;;16.10;99.90;;;;;;5052486;28;20060;-63
2022/07/09 03:34:53;;;;;;;18.75;10.88;;;;;;;;;;5052434;28;20074;-63
2022/07/09 03:37:19;;;;;;;20.10;10.18;;;16.30;99.90;;;;;;5052281;28;20044;-63
2022/07/09 03:39:45;;;;;;;20.05;10.68;;;16.50;99.90;;;;;;5052209;28;20099;-62
2022/07/09 03:42:11;;;;;;;22.67;11.00;;;16.00;99.90;;;;;;5052285;28;20041;-62
2022/07/09 03:44:37;;;;;;;19.38;9.70;;;;;;;;;;5052019;28;20041;-62
2022/07/09 03:47:03;;;;;;;18.90;10.30;;;16.30;99.90;;;;;;5051875;28;20144;-62
2022/07/09 03:49:29;;;;;;;22.92;10.18;;;16.40;99.90;;;;;;5051916;28;20048;-63
2022/07/09 03:51:55;;;;;;;21.38;9.50;;;;;;;;;;5051765;28;20052;-62
2022/07/09 03:54:21;;;;;;;24.58;10.15;;;16.70;99.90;;;;;;5051716;28;20408;-62
2022/07/09 03:56:47;;;;;;;19.05;9.82;;;16.50;99.90;;;;;;5033806;28;20060;-62
2022/07/09 03:59:13;;;;;;;18.02;9.88;;;;;;;;;;5051878;28;20045;-62
2022/07/09 04:01:39;;;;;;;16.70;9.15;;;15.90;99.90;;;;;;5051733;28;20103;-63
2022/07/09 04:04:05;;;;;;;18.40;10.13;;;16.10;99.90;;;;;;5051851;28;20045;-63
2022/07/09 04:06:31;;;;;;;18.88;9.98;;;16.30;99.90;;;;;;5051324;28;20080;-63
2022/07/09 04:08:57;;;;;;;18.25;10.02;;;16.60;99.90;;;;;;5033506;28;20408;-63
2022/07/09 04:11:23;;;;;;;21.25;10.07;;;16.50;99.90;;;;;;5051430;28;20069;-63
2022/07/09 04:13:49;;;;;;;19.05;9.68;;;16.30;99.90;;;;;;5051440;28;20448;-63
2022/07/09 04:16:15;;;;;;;19.45;9.02;;;16.60;99.90;;;;;;5051204;28;20041;-63
2022/07/09 04:18:43;;;;;;;17.05;9.65;;;16.30;99.90;;;;;;5051307;28;20084;-63
2022/07/09 04:21:09;;;;;;;17.40;9.18;;;16.20;99.90;;;;;;5033372;28;20579;-63
2022/07/09 04:23:35;;;;;;;20.40;9.35;;;;;;;;;;5033739;28;20053;-63
2022/07/09 04:26:01;;;;;;;22.30;10.35;;;16.40;99.90;;;;;;5051436;28;20404;-63
2022/07/09 04:28:27;;;;;;;19.10;9.88;;;16.20;99.90;;;;;;5051202;28;20057;-63
2022/07/09 04:30:53;;;;;;;18.65;9.25;;;17.00;99.90;;;;;;5051527;28;20045;-63
2022/07/09 04:33:19;;;;;;;19.27;10.10;;;16.80;99.90;;;;;;5051391;28;20088;-63
2022/07/09 04:35:45;;;;;;;23.20;9.82;;;16.70;99.90;;;;;;5051237;28;20138;-63
2022/07/09 04:38:12;;;;;;;19.60;9.85;;;16.80;99.90;;;;;;5051266;28;20686;-62
2022/07/09 04:40:38;;;;;;;18.20;9.48;;;16.60;99.90;;;;;;5051031;28;20084;-62
2022/07/09 04:43:04;;;;;;;20.15;9.88;;;17.00;99.90;;;;;;5033727;28;20062;-62
2022/07/09 04:45:31;;;;;;;20.90;10.43;;;17.10;99.90;;;;;;5050914;28;20049;-62
2022/07/09 04:48:01;;;;;;;19.55;10.05;;;17.20;99.90;;;;;;5051000;28;20515;-63
2022/07/09 04:50:26;;;;;;;24.02;10.75;;;16.40;99.90;;;;;;5050793;28;20501;-62
2022/07/09 04:52:53;;;;;;;18.73;9.75;;;17.10;99.90;;;;;;5051100;28;20052;-63
2022/07/09 04:55:19;;;;;;;20.35;10.85;;;16.90;99.90;;;;;;5051098;28;20041;-63
2022/07/09 04:57:44;;;;;;;18.35;10.68;;;17.00;99.90;;;;;;5051064;28;20048;-64
2022/07/09 05:00:11;;;;;;;18.20;10.23;;;17.00;99.90;;;;;;5033054;28;20376;-65
2022/07/09 05:02:38;;;;;;;17.27;9.70;;;17.00;99.90;;;;;;5051343;28;20048;-63
2022/07/09 05:05:06;;;;;;;16.42;9.82;;;16.90;99.90;;;;;;5050860;28;20519;-62
2022/07/09 05:07:33;;;;;;;19.50;9.98;;;17.00;99.90;;;;;;5050799;28;20128;-62
2022/07/09 05:10:01;;;;;;;16.95;10.00;;;17.20;99.90;;;;;;5051016;28;20075;-62
2022/07/09 05:12:27;;;;;;;19.23;10.02;;;;;;;;;;5050736;28;20091;-63
2022/07/09 05:14:53;;;;;;;18.20;9.55;;;17.40;99.90;;;;;;5051232;28;20037;-65
2022/07/09 05:17:19;;;;;;;18.63;9.73;;;17.90;99.90;;;;;;5051006;28;20381;-63
2022/07/09 05:19:45;;;;;;;15.98;9.23;;;;;;;;;;5050622;28;20074;-62
2022/07/09 05:22:11;;;;;;;16.10;9.20;;;17.70;99.90;;;;;;5033441;28;20075;-62
2022/07/09 05:24:36;;;;;;;18.38;9.50;;;18.00;99.90;;;;;;5019588;28;20583;-62
2022/07/09 05:27:03;;;;;;;17.88;9.25;;;18.70;99.90;;;;;;5054513;28;20098;-62
2022/07/09 05:29:29;;;;;;;22.30;9.70;;;;;;;;;;5054891;28;20048;-62
2022/07/09 05:31:57;;;;;;;14.15;8.80;;;18.40;99.90;;;;;;5036482;28;20060;-63
2022/07/09 05:34:23;;;;;;;15.65;9.15;;;18.20;99.90;;;;;;5054758;28;20045;-63
2022/07/09 05:36:54;;;;;;;14.15;8.95;;;18.60;99.90;;;;;;5054588;28;20462;-63
2022/07/09 05:39:20;;;;;;;17.23;9.05;;;18.20;99.90;;;;;;5054372;28;20045;-65
2022/07/09 05:41:46;;;;;;;14.48;8.57;;;18.10;99.90;;;;;;5041613;28;20522;-62
2022/07/09 05:44:12;;;;;;;17.00;9.40;;;18.30;99.90;;;;;;5059518;28;20048;-63
2022/07/09 05:46:37;;;;;;;16.25;8.95;;;18.10;99.90;;;;;;5073367;28;20049;-62
2022/07/09 05:49:03;;;;;;;18.33;9.30;;;19.10;99.90;;;;;;5072956;28;20048;-62
2022/07/09 05:51:29;;;;;;;14.27;7.88;;;18.80;99.90;;;;;;5072896;28;20056;-62
2022/07/09 05:53:55;;;;;;;13.35;7.60;;;19.40;99.90;;;;;;5054994;28;20518;-62
2022/07/09 05:56:22;;;;;;;11.10;7.05;;;20.10;99.90;;;;;;5073402;28;20123;-63
2022/07/09 05:58:48;;;;;;;12.00;7.00;;;20.00;99.90;;;;;;5072646;28;20079;-63
2022/07/09 06:01:14;;;;;;;12.15;6.80;;;20.30;99.90;;;;;;5070209;28;20469;-61
2022/07/09 06:03:40;;;;;;;11.07;6.68;;;20.40;99.90;;;;;;5051838;28;20051;-62
2022/07/09 06:06:06;;;;;;;12.45;7.00;;;20.10;99.90;;;;;;5050895;28;20044;-62
2022/07/09 06:08:33;;;;;;;11.77;6.15;;;20.20;99.90;;;;;;5052865;28;20103;-62
2022/07/09 06:10:59;;;;;;;10.48;5.30;;;20.30;99.90;;;;;;5055679;28;20049;-62
2022/07/09 06:13:25;;;;;;;11.02;5.78;;;20.40;99.90;;;;;;5054007;28;20049;-62
2022/07/09 06:15:52;;;;;;;9.60;5.45;;;20.30;99.90;;;;;;5053853;28;20067;-63
2022/07/09 06:18:17;;;;;;;9.82;5.35;;;20.20;99.90;;;;;;5053372;28;20124;-62
2022/07/09 06:20:44;;;;;;;10.95;5.30;;;20.10;99.90;;;;;;5052133;28;20136;-62
2022/07/09 06:23:09;;;;;;;9.13;4.80;;;20.10;99.90;;;;;;5053542;28;20290;-62
2022/07/09 06:25:37;;;;;;;10.13;4.93;;;20.00;99.90;;;;;;5053601;28;20575;-63
2022/07/09 06:28:03;;;;;;;8.70;4.70;;;20.10;99.90;;;;;;5052429;28;20040;-62
2022/07/09 06:30:29;;;;;;;6.97;4.00;;;;;;;;;;5052849;28;20053;-62
2022/07/09 06:32:55;;;;;;;7.45;4.05;;;20.10;99.90;;;;;;5053791;28;20053;-62
2022/07/09 06:35:21;;;;;;;8.40;4.00;;;20.30;99.90;;;;;;5053395;28;20188;-62
2022/07/09 06:37:46;;;;;;;10.48;4.22;;;20.70;99.90;;;;;;5052260;28;20458;-63
2022/07/09 06:40:15;;;;;;;6.80;4.07;;;20.50;99.90;;;;;;5051787;28;20052;-62
2022/07/09 06:42:42;;;;;;;11.32;4.03;;;;;;;;;;5065128;28;20445;-63
2022/07/09 06:45:08;;;;;;;8.68;3.97;;;20.40;99.90;;;;;;5055396;28;20105;-62
2022/07/09 06:47:34;;;;;;;8.27;4.10;;;20.30;99.90;;;;;;5064178;28;20519;-62
2022/07/09 06:50:00;;;;;;;8.02;3.90;;;20.10;99.90;;;;;;5052787;28;20520;-62
2022/07/09 06:52:25;;;;;;;8.02;3.63;;;20.00;99.90;;;;;;5052967;28;20049;-62
2022/07/09 06:54:51;;;;;;;6.75;3.65;;;19.90;99.90;;;;;;5053319;28;20508;-62
2022/07/09 06:57:17;;;;;;;7.03;3.65;;;20.00;99.90;;;;;;5052933;28;20507;-63
2022/07/09 06:59:47;;;;;;;6.38;3.55;;;19.80;99.90;;;;;;5034984;28;20120;-62
2022/07/09 07:02:13;;;;;;;9.82;3.90;;;19.80;99.90;;;;;;5052883;28;20045;-62
2022/07/09 07:04:38;;;;;;;9.38;3.50;;;19.60;99.90;;;;;;5052875;28;20048;-62
2022/07/09 07:07:04;;;;;;;6.93;3.80;;;20.10;99.90;;;;;;5052995;28;20041;-62
2022/07/09 07:09:30;;;;;;;8.43;3.90;;;19.90;99.90;;;;;;5018207;28;20063;-62
2022/07/09 07:11:56;;;;;;;7.40;4.10;;;19.90;99.90;;;;;;5034894;28;20053;-62
2022/07/09 07:14:22;;;;;;;9.63;3.92;;;19.70;99.90;;;;;;5052807;28;20122;-62
2022/07/09 07:16:48;;;;;;;7.63;3.78;;;19.70;99.90;;;;;;5052563;28;20484;-62
2022/07/09 07:19:14;;;;;;;8.90;3.88;;;20.30;99.90;;;;;;5036422;28;20052;-62
2022/07/09 07:21:40;;;;;;;7.95;3.63;;;19.70;99.90;;;;;;5034441;28;20472;-62
2022/07/09 07:24:07;;;;;;;7.90;3.55;;;19.90;99.90;;;;;;5052656;28;20056;-62
2022/07/09 07:26:34;;;;;;;5.90;3.53;;;20.20;99.90;;;;;;5052423;28;20045;-62
2022/07/09 07:28:59;;;;;;;11.73;3.58;;;19.80;99.90;;;;;;5052168;28;20136;-62
2022/07/09 07:31:26;;;;;;;5.55;3.15;;;;;;;;;;5052080;28;20136;-62
2022/07/09 07:33:52;;;;;;;7.45;3.30;;;19.40;99.90;;;;;;5052191;28;20079;-63
2022/07/09 07:36:17;;;;;;;5.93;3.58;;;20.10;99.90;;;;;;5034349;28;20056;-63
2022/07/09 07:38:45;;;;;;;8.20;3.75;;;19.90;99.90;;;;;;5052035;28;20045;-62
2022/07/09 07:41:11;;;;;;;6.97;3.47;;;19.90;99.90;;;;;;5052200;28;20506;-62
2022/07/09 07:43:37;;;;;;;6.20;3.30;;;20.10;99.90;;;;;;5034145;28;20049;-62
2022/07/09 07:46:03;;;;;;;6.95;3.45;;;20.10;99.90;;;;;;5051632;28;20044;-62
2022/07/09 07:48:30;;;;;;;7.68;3.65;;;19.90;99.90;;;;;;5034149;28;20045;-62
2022/07/09 07:50:57;;;;;;;6.45;3.40;;;20.10;99.90;;;;;;5051531;28;20064;-62
2022/07/09 07:53:23;;;;;;;7.00;3.50;;;19.90;99.90;;;;;;5052055;28;20447;-62
2022/07/09 07:55:49;;;;;;;6.00;3.38;;;19.30;99.90;;;;;;5051780;28;20094;-62
2022/07/09 07:58:15;;;;;;;7.90;3.40;;;19.30;99.90;;;;;;5051785;28;20511;-62
2022/07/09 08:00:41;;;;;;;6.78;3.47;;;19.10;99.90;;;;;;5051678;28;20496;-62
2022/07/09 08:03:07;;;;;;;7.57;3.45;;;;;;;;;;5051730;28;20040;-62
2022/07/09 08:05:33;;;;;;;6.25;3.47;;;19.60;99.90;;;;;;5051496;28;20395;-62
2022/07/09 08:07:59;;;;;;;6.72;3.25;;;19.60;99.90;;;;;;5051616;28;20051;-63
2022/07/09 08:10:26;;;;;;;6.03;3.17;;;;;;;;;;5051547;28;20488;-63
2022/07/09 08:12:52;;;;;;;7.80;3.45;;;19.70;99.90;;;;;;5051585;28;20454;-63
2022/07/09 08:15:18;;;;;;;8.63;3.55;;;19.20;99.90;;;;;;5051491;28;20404;-63
2022/07/09 08:17:44;;;;;;;6.43;3.53;;;19.40;99.90;;;;;;5051593;28;20051;-63
2022/07/09 08:20:10;;;;;;;9.25;3.80;;;19.70;99.90;;;;;;5051324;28;20041;-63
2022/07/09 08:22:37;;;;;;;7.75;3.30;;;19.70;99.90;;;;;;5054130;28;20120;-63
2022/07/09 08:25:03;;;;;;;8.80;3.13;;;19.80;99.90;;;;;;5051545;28;20126;-63
2022/07/09 08:27:29;;;;;;;7.15;3.15;;;20.10;99.90;;;;;;5067017;28;20072;-64
2022/07/09 08:29:55;;;;;;;6.88;3.00;;;20.40;99.90;;;;;;5051333;28;20083;-63
2022/07/09 08:32:20;;;;;;;4.65;2.80;;;20.70;99.90;;;;;;5051339;28;20416;-62
2022/07/09 08:34:46;;;;;;;7.22;2.60;;;21.50;99.90;;;;;;5051327;28;20053;-63
2022/07/09 08:37:12;;;;;;;5.15;2.60;;;21.50;99.90;;;;;;5051405;28;20110;-63
2022/07/09 08:39:37;;;;;;;7.10;2.80;;;22.50;99.90;;;;;;5051394;28;20083;-63
2022/07/09 08:42:09;;;;;;;7.72;2.60;;;22.60;99.90;;;;;;5058021;28;20530;-62
2022/07/09 08:44:38;;;;;;;3.90;2.20;;;22.60;99.90;;;;;;5071230;28;20088;-63
2022/07/09 08:47:05;;;;;;;4.93;2.30;;;22.70;99.90;;;;;;5071281;28;20123;-62
2022/07/09 08:49:32;;;;;;;8.52;2.15;;;22.80;99.90;;;;;;5036981;28;20055;-62
2022/07/09 08:51:58;;;;;;;5.47;2.30;;;22.90;99.90;;;;;;5070885;28;20122;-62
2022/07/09 08:54:24;;;;;;;4.47;2.17;;;22.70;99.90;;;;;;5053078;28;20056;-63
2022/07/09 08:56:52;;;;;;;4.55;2.30;;;22.80;99.90;;;;;;5071164;28;20041;-64
2022/07/09 08:59:17;;;;;;;7.85;2.45;;;22.90;99.90;;;;;;5055727;28;20048;-62
2022/07/09 09:01:43;;;;;;;5.97;2.40;;;23.90;99.90;;;;;;5075051;28;20117;-63
2022/07/09 09:04:09;;;;;;;6.70;2.63;;;23.10;99.90;;;;;;5075144;28;20088;-62
2022/07/09 09:06:39;;;;;;;7.57;2.40;;;23.10;99.90;;;;;;5075035;28;20182;-62
2022/07/09 09:09:08;;;;;;;6.68;2.10;;;23.30;99.90;;;;;;5075206;28;20048;-62
2022/07/09 09:11:36;;;;;;;4.03;2.33;;;23.30;99.90;;;;;;5057126;28;20404;-62
2022/07/09 09:14:02;;;;;;;5.72;2.38;;;23.10;99.90;;;;;;5074898;28;20040;-62
2022/07/09 09:16:28;;;;;;;7.85;2.20;;;23.00;99.90;;;;;;5074864;28;20101;-62
2022/07/09 09:18:55;;;;;;;4.47;2.05;;;22.50;99.90;;;;;;5057001;28;20135;-62
2022/07/09 09:21:23;;;;;;;4.25;1.90;;;22.60;99.90;;;;;;5074972;28;20055;-63
2022/07/09 09:23:58;;;;;;;3.53;2.03;;;22.80;99.90;;;;;;5074776;28;20044;-63
2022/07/09 09:26:27;;;;;;;4.80;2.10;;;22.90;99.90;;;;;;5074717;28;20052;-63
2022/07/09 09:28:59;;;;;;;4.60;1.80;;;22.80;99.90;;;;;;5074610;28;20040;-62
2022/07/09 09:31:25;;;;;;;4.60;1.85;;;22.90;99.90;;;;;;5074475;28;20526;-63
2022/07/09 09:33:56;;;;;;;5.05;1.70;;;23.70;99.90;;;;;;5073239;28;20052;-63
2022/07/09 09:36:34;;;;;;;2.42;1.60;;;23.00;99.90;;;;;;5073958;28;20052;-63
2022/07/09 09:39:23;;;;;;;4.15;1.70;;;23.90;99.90;;;;;;5074168;28;20048;-63
2022/07/09 09:42:00;;;;;;;5.68;1.80;;;23.80;99.90;;;;;;5074470;28;20055;-63
2022/07/09 09:44:37;;;;;;;3.35;1.63;;;24.00;99.90;;;;;;5074417;28;20044;-63
2022/07/09 09:47:03;;;;;;;3.38;1.80;;;24.30;99.90;;;;;;5074278;28;20105;-62
2022/07/09 09:49:29;;;;;;;5.20;1.80;;;24.30;99.90;;;;;;5074211;28;20106;-63
2022/07/09 09:52:08;;;;;;;4.10;1.65;;;23.80;99.90;;;;;;5073893;28;20053;-63
2022/07/09 09:54:38;;;;;;;4.13;1.50;;;23.80;99.90;;;;;;5074344;28;20040;-63
2022/07/09 09:57:09;;;;;;;2.95;1.50;;;23.60;99.90;;;;;;5074435;28;20040;-63
2022/07/09 09:59:38;;;;;;;5.47;1.65;;;23.50;99.90;;;;;;5073948;28;20044;-63
2022/07/09 10:02:11;;;;;;;5.50;1.70;;;23.40;99.90;;;;;;5073857;28;20045;-63
2022/07/09 10:04:37;;;;;;;3.33;1.60;;;22.90;99.90;;;;;;5074122;28;20048;-63
2022/07/09 10:07:07;;;;;;;4.53;1.67;;;22.80;99.90;;;;;;5074271;28;20395;-64
2022/07/09 10:09:35;;;;;;;6.45;1.63;;;22.40;99.90;;;;;;5073421;28;20087;-64
2022/07/09 10:12:01;;;;;;;2.45;1.55;;;22.50;99.90;;;;;;5055923;28;20541;-63
2022/07/09 10:14:31;;;;;;;2.83;1.60;;;22.30;99.90;;;;;;5073802;28;20052;-63
2022/07/09 10:17:08;;;;;;;7.22;1.50;;;22.80;99.90;;;;;;5038918;28;20106;-63
2022/07/09 10:19:34;;;;;;;2.95;1.40;;;22.70;99.90;;;;;;5073878;28;20127;-63
2022/07/09 10:22:00;;;;;;;3.85;1.52;;;23.40;99.90;;;;;;5073817;28;20127;-63
2022/07/09 10:24:29;;;;;;;3.58;1.50;;;23.40;99.90;;;;;;5073542;28;20044;-64
2022/07/09 10:27:04;;;;;;;3.08;1.30;;;23.60;99.90;;;;;;5073612;28;20049;-63
2022/07/09 10:29:30;;;;;;;3.77;1.77;;;24.00;99.90;;;;;;5073708;28;20124;-63
2022/07/09 10:31:56;;;;;;;2.67;1.50;;;23.90;99.90;;;;;;5055643;28;20309;-66
2022/07/09 10:34:30;;;;;;;3.65;1.50;;;24.00;99.90;;;;;;5073531;28;20175;-63
2022/07/09 10:37:00;;;;;;;6.07;1.90;;;23.30;99.90;;;;;;5055526;28;20570;-63
2022/07/09 10:39:27;;;;;;;3.45;1.58;;;23.40;99.90;;;;;;5055360;28;20275;-64
2022/07/09 10:42:00;;;;;;;5.85;1.70;;;23.20;99.90;;;;;;5073443;28;20044;-64
2022/07/09 10:44:39;;;;;;;8.45;1.70;;;22.90;99.90;;;;;;5038664;28;20088;-63
2022/07/09 10:47:05;;;;;;;6.75;1.65;;;22.60;99.90;;;;;;5073406;28;20115;-63
2022/07/09 10:49:36;;;;;;;4.15;1.73;;;22.70;99.90;;;;;;5073189;28;20083;-63
2022/07/09 10:52:04;;;;;;;3.70;1.63;;;23.20;99.90;;;;;;5072940;28;20056;-65
2022/07/09 10:54:30;;;;;;;3.33;1.20;;;23.60;99.90;;;;;;5073372;28;20453;-65
2022/07/09 10:56:57;;;;;;;4.85;1.60;;;23.40;99.90;;;;;;5073105;28;20056;-64
2022/07/09 10:59:24;;;;;;;4.38;1.40;;;23.20;99.90;;;;;;5073327;28;20056;-63
2022/07/09 11:01:51;;;;;;;3.85;1.48;;;22.90;99.90;;;;;;5072986;28;20044;-63
2022/07/09 11:04:30;;;;;;;4.40;1.55;;;22.70;99.90;;;;;;5073175;28;20048;-63
2022/07/09 11:06:57;;;;;;;5.20;1.60;;;22.80;99.90;;;;;;5073058;28;20075;-64
2022/07/09 11:09:27;;;;;;;2.85;1.30;;;23.00;99.90;;;;;;5072943;28;20403;-63
2022/07/09 11:11:53;;;;;;;5.57;1.92;;;23.10;99.90;;;;;;5070095;28;20114;-63
2022/07/09 11:14:19;;;;;;;5.93;1.95;;;23.60;99.90;;;;;;5041307;28;20443;-63
2022/07/09 11:16:58;;;;;;;5.57;2.25;;;23.80;99.90;;;;;;5036822;28;20110;-63
2022/07/09 11:19:25;;;;;;;4.10;1.60;;;23.70;99.90;;;;;;5071284;28;20113;-63
2022/07/09 11:22:01;;;;;;;4.55;1.80;;;23.60;99.90;;;;;;5070246;28;20040;-62
2022/07/09 11:24:27;;;;;;;4.85;1.80;;;23.40;99.90;;;;;;5071636;28;20057;-62
2022/07/09 11:26:53;;;;;;;5.32;1.88;;;23.40;99.90;;;;;;5072371;28;20049;-62
2022/07/09 11:29:19;;;;;;;8.25;2.05;;;23.50;99.90;;;;;;5072174;28;20041;-62
2022/07/09 11:31:49;;;;;;;6.60;1.80;;;23.40;99.90;;;;;;5072614;28;20049;-62
2022/07/09 11:34:19;;;;;;;4.28;1.58;;;23.30;99.90;;;;;;5072405;28;20048;-63
2022/07/09 11:36:47;;;;;;;5.28;1.70;;;23.80;99.90;;;;;;5054369;28;20131;-63
2022/07/09 11:39:30;;;;;;;6.70;2.20;;;23.60;99.90;;;;;;5071909;28;20120;-63
2022/07/09 11:41:57;;;;;;;5.75;1.60;;;23.80;99.90;;;;;;5072080;28;20052;-62
2022/07/09 11:44:28;;;;;;;4.82;1.80;;;24.30;99.90;;;;;;5071708;28;20048;-63
2022/07/09 11:47:21;;;;;;;6.88;1.70;;;23.80;99.90;;;;;;5072136;28;20124;-62
2022/07/09 11:49:48;;;;;;;6.40;1.60;;;25.10;99.90;;;;;;5071978;28;20129;-63
2022/07/09 11:52:23;;;;;;;7.38;1.70;;;24.20;99.90;;;;;;5054013;28;20048;-63
2022/07/09 11:55:04;;;;;;;4.20;1.40;;;24.50;99.90;;;;;;5071602;28;20041;-62
2022/07/09 11:57:32;;;;;;;7.47;1.85;;;24.30;99.90;;;;;;5071811;28;20072;-62
2022/07/09 11:59:58;;;;;;;9.65;2.25;;;24.30;99.90;;;;;;5054054;28;20044;-62
2022/07/09 12:02:35;;;;;;;7.03;2.13;;;23.80;99.90;;;;;;5071948;28;20118;-62
2022/07/09 12:05:04;;;;;;;9.10;2.20;;;23.40;99.90;;;;;;5071534;28;20072;-62
2022/07/09 12:07:30;;;;;;;8.15;2.55;;;23.10;99.90;;;;;;5071740;28;20076;-62
2022/07/09 12:10:10;;;;;;;7.78;2.10;;;22.80;99.90;;;;;;5053669;28;20048;-62
2022/07/09 12:12:37;;;;;;;8.13;2.45;;;22.70;99.90;;;;;;5071453;28;20056;-67
2022/07/09 12:15:04;;;;;;;7.97;2.00;;;22.90;99.90;;;;;;5053829;28;20102;-67
2022/07/09 12:17:31;;;;;;;7.50;2.00;;;23.10;99.90;;;;;;5072017;28;20087;-66
2022/07/09 12:19:58;;;;;;;7.28;1.90;;;23.30;99.90;;;;;;5053847;28;20055;-66
2022/07/09 12:22:25;;;;;;;8.65;2.15;;;23.00;99.90;;;;;;5053572;28;20439;-69
2022/07/09 12:24:51;;;;;;;6.10;2.00;;;23.60;99.90;;;;;;5053969;28;20091;-68
2022/07/09 12:27:19;;;;;;;6.25;1.80;;;22.90;99.90;;;;;;5071363;28;20045;-63
2022/07/09 12:29:45;;;;;;;8.35;2.20;;;23.20;99.90;;;;;;5071369;28;20044;-62
2022/07/09 12:32:12;;;;;;;8.77;2.38;;;23.10;99.90;;;;;;5070859;28;20045;-62
2022/07/09 12:34:37;;;;;;;4.53;1.80;;;23.00;99.90;;;;;;5071642;28;20067;-63
2022/07/09 12:37:03;;;;;;;6.43;2.20;;;23.30;99.90;;;;;;5071321;28;20099;-63
2022/07/09 12:39:29;;;;;;;5.97;1.92;;;23.10;99.90;;;;;;5071281;28;20044;-63
2022/07/09 12:41:55;;;;;;;11.68;2.28;;;23.00;99.90;;;;;;5053175;28;20052;-63
2022/07/09 12:44:20;;;;;;;6.45;2.10;;;23.00;99.90;;;;;;5071328;28;20044;-63